Terminal Aerodrome Forecast
Issued by NWS

Home | Current Version | Previous Version | Text Only | Print | Product List | Glossary On
Versions: 1 2 3 4 5 6 7 8 9 10 11 12 13 14 15 16 17 18
000
FTUS44 KSJT 180520
TAFSOA
TAF
KSOA 180520Z 1806/1906 04004KT P6SM BKN250
     FM180800 VRB03KT 6SM -DZ VCSH OVC007
     FM182000 17011G16KT P6SM BKN015=

USA.gov is the U.S. government's official web portal to all federal, state and local government web resources and services.